Time,TemperatureF,DewpointF,PressureIn,WindDirection,WindDirectionDegrees,WindSpeedMPH,WindSpeedGustMPH,Humidity,HourlyPrecipIn,Conditions,Clouds,dailyrainin,SoftwareType,DateUTC
2013-05-06 00:02:00,56.0,44.0,30.01,ESE,114,2.0,5.0,65,0.00,,,0.00,,2013-05-06 05:02:00,
2013-05-06 00:12:00,56.0,44.0,30.01,ESE,114,2.0,5.0,65,0.00,,,0.00,,2013-05-06 05:12:00,
2013-05-06 00:22:00,56.0,44.0,30.01,ESE,108,1.0,3.0,65,0.00,,,0.00,,2013-05-06 05:22:00,
2013-05-06 00:32:00,55.0,43.0,30.01,ESE,109,0.0,1.0,64,0.00,,,0.00,,2013-05-06 05:32:00,
2013-05-06 00:42:00,55.0,43.0,30.01,ESE,109,0.0,1.0,64,0.00,,,0.00,,2013-05-06 05:42:00,
2013-05-06 00:52:00,55.0,43.0,30.01,East,98,0.0,1.0,65,0.00,,,0.00,,2013-05-06 05:52:00,
2013-05-06 01:02:00,55.0,44.0,30.00,East,98,0.0,2.0,66,0.00,,,0.00,,2013-05-06 06:02:00,
2013-05-06 01:12:00,55.0,44.0,30.00,East,98,0.0,2.0,66,0.00,,,0.00,,2013-05-06 06:12:00,
2013-05-06 01:21:00,54.0,44.0,29.99,East,98,0.0,0.0,69,0.00,,,0.00,,2013-05-06 06:21:00,
2013-05-06 01:31:00,53.0,44.0,29.99,East,98,0.0,2.0,71,0.00,,,0.00,,2013-05-06 06:31:00,
2013-05-06 01:42:00,53.0,44.0,29.99,East,98,0.0,2.0,71,0.00,,,0.00,,2013-05-06 06:42:00,
2013-05-06 01:52:00,52.0,44.0,29.99,East,98,0.0,2.0,74,0.00,,,0.00,,2013-05-06 06:52:00,
2013-05-06 02:01:00,53.0,45.0,29.98,East,98,0.0,2.0,73,0.00,,,0.00,,2013-05-06 07:01:00,
2013-05-06 02:11:00,53.0,45.0,29.98,East,98,0.0,2.0,73,0.00,,,0.00,,2013-05-06 07:11:00,
2013-05-06 02:22:00,53.0,45.0,29.98,East,98,0.0,2.0,73,0.00,,,0.00,,2013-05-06 07:22:00,
2013-05-06 02:31:00,53.0,45.0,29.98,East,97,0.0,3.0,73,0.00,,,0.00,,2013-05-06 07:31:00,
2013-05-06 02:42:00,53.0,45.0,29.98,East,97,0.0,3.0,73,0.00,,,0.00,,2013-05-06 07:42:00,
2013-05-06 02:52:00,53.0,44.0,29.98,ENE,60,1.0,2.0,71,0.00,,,0.00,,2013-05-06 07:52:00,
2013-05-06 03:02:00,53.0,44.0,29.97,NNE,22,1.0,3.0,72,0.00,,,0.00,,2013-05-06 08:02:00,
2013-05-06 03:12:00,53.0,44.0,29.97,NNE,22,1.0,3.0,72,0.00,,,0.00,,2013-05-06 08:12:00,
2013-05-06 03:22:00,53.0,43.0,29.97,North,355,1.0,3.0,70,0.00,,,0.00,,2013-05-06 08:22:00,
2013-05-06 03:31:00,54.0,45.0,29.97,NNE,19,1.0,3.0,71,0.00,,,0.00,,2013-05-06 08:31:00,
2013-05-06 03:42:00,54.0,45.0,29.97,NNE,19,1.0,3.0,71,0.00,,,0.00,,2013-05-06 08:42:00,
2013-05-06 03:52:00,53.0,44.0,29.97,North,5,0.0,2.0,72,0.00,,,0.00,,2013-05-06 08:52:00,
2013-05-06 04:01:00,53.0,45.0,29.97,NNW,339,1.0,3.0,74,0.00,,,0.00,,2013-05-06 09:01:00,
2013-05-06 04:11:00,53.0,45.0,29.97,NNW,339,1.0,3.0,74,0.00,,,0.00,,2013-05-06 09:11:00,
2013-05-06 04:22:00,53.0,45.0,29.97,NNW,343,2.0,5.0,74,0.00,,,0.00,,2013-05-06 09:22:00,
2013-05-06 04:32:00,53.0,45.0,29.97,NNW,346,1.0,4.0,74,0.00,,,0.00,,2013-05-06 09:32:00,
2013-05-06 04:42:00,53.0,45.0,29.97,NNW,346,1.0,4.0,74,0.00,,,0.00,,2013-05-06 09:42:00,
2013-05-06 04:53:00,53.0,45.0,29.97,North,11,2.0,6.0,75,0.00,,,0.00,,2013-05-06 09:53:00,
2013-05-06 05:02:00,53.0,46.0,29.97,NNE,15,1.0,4.0,76,0.00,,,0.00,,2013-05-06 10:02:00,
2013-05-06 05:12:00,53.0,46.0,29.97,NNE,15,1.0,4.0,76,0.00,,,0.00,,2013-05-06 10:12:00,
2013-05-06 05:22:00,53.0,46.0,29.98,NNW,343,1.0,4.0,76,0.00,,,0.00,,2013-05-06 10:22:00,
2013-05-06 05:33:00,53.0,46.0,29.98,NNW,331,2.0,6.0,76,0.00,,,0.00,,2013-05-06 10:33:00,
2013-05-06 05:42:00,53.0,46.0,29.98,NNW,331,2.0,6.0,76,0.00,,,0.00,,2013-05-06 10:42:00,
2013-05-06 05:52:00,53.0,45.0,29.98,NNW,348,2.0,6.0,75,0.00,,,0.00,,2013-05-06 10:52:00,
2013-05-06 06:02:00,53.0,45.0,29.98,NNW,332,1.0,5.0,75,0.00,,,0.00,,2013-05-06 11:02:00,
2013-05-06 06:12:00,53.0,45.0,29.98,NNW,332,1.0,5.0,75,0.00,,,0.00,,2013-05-06 11:12:00,
2013-05-06 06:22:00,53.0,45.0,29.98,NNE,17,2.0,4.0,74,0.00,,,0.00,,2013-05-06 11:22:00,
2013-05-06 06:31:00,53.0,45.0,29.99,NNE,32,1.0,5.0,75,0.00,,,0.00,,2013-05-06 11:31:00,
2013-05-06 06:42:00,53.0,45.0,29.99,NNE,32,1.0,5.0,75,0.00,,,0.00,,2013-05-06 11:42:00,
2013-05-06 06:52:00,53.0,44.0,30.01,NNE,32,1.0,4.0,72,0.00,,,0.00,,2013-05-06 11:52:00,
2013-05-06 07:01:00,53.0,44.0,30.01,North,350,1.0,5.0,72,0.00,,,0.00,,2013-05-06 12:01:00,
2013-05-06 07:12:00,53.0,44.0,30.01,North,350,1.0,5.0,72,0.00,,,0.00,,2013-05-06 12:12:00,
2013-05-06 07:21:00,53.0,45.0,30.01,North,5,1.0,4.0,73,0.00,,,0.00,,2013-05-06 12:21:00,
2013-05-06 07:32:00,53.0,45.0,30.01,NNE,18,1.0,6.0,73,0.00,,,0.00,,2013-05-06 12:32:00,
2013-05-06 07:42:00,53.0,45.0,30.01,NNE,18,1.0,6.0,73,0.00,,,0.00,,2013-05-06 12:42:00,
2013-05-06 07:52:00,54.0,45.0,30.01,NNW,342,2.0,5.0,72,0.00,,,0.00,,2013-05-06 12:52:00,
2013-05-06 08:01:00,54.0,46.0,30.01,NNW,348,1.0,4.0,73,0.00,,,0.00,,2013-05-06 13:01:00,
2013-05-06 08:11:00,54.0,46.0,30.01,NNW,348,1.0,4.0,73,0.00,,,0.00,,2013-05-06 13:11:00,
2013-05-06 08:21:00,55.0,46.0,30.01,NNE,16,3.0,7.0,71,0.00,,,0.00,,2013-05-06 13:21:00,
2013-05-06 08:32:00,56.0,46.0,30.01,North,10,2.0,6.0,70,0.00,,,0.00,,2013-05-06 13:32:00,
2013-05-06 08:42:00,56.0,46.0,30.01,North,10,2.0,6.0,70,0.00,,,0.00,,2013-05-06 13:42:00,
2013-05-06 08:52:00,56.0,45.0,30.02,North,5,1.0,7.0,66,0.00,,,0.00,,2013-05-06 13:52:00,
2013-05-06 09:01:00,57.0,45.0,30.02,NW,306,3.0,8.0,63,0.00,,,0.00,,2013-05-06 14:01:00,
2013-05-06 09:11:00,57.0,45.0,30.02,NW,306,3.0,8.0,63,0.00,,,0.00,,2013-05-06 14:11:00,
2013-05-06 09:21:00,59.0,46.0,30.02,NNW,329,3.0,7.0,62,0.00,,,0.00,,2013-05-06 14:21:00,
2013-05-06 09:32:00,59.0,45.0,30.02,NNW,333,3.0,6.0,60,0.00,,,0.00,,2013-05-06 14:32:00,
2013-05-06 09:42:00,59.0,45.0,30.02,NNW,333,3.0,6.0,60,0.00,,,0.00,,2013-05-06 14:42:00,
2013-05-06 09:52:00,60.0,47.0,30.02,NNE,29,3.0,9.0,63,0.00,,,0.00,,2013-05-06 14:52:00,
2013-05-06 10:01:00,62.0,48.0,30.02,NNW,343,3.0,8.0,60,0.00,,,0.00,,2013-05-06 15:01:00,
2013-05-06 10:11:00,62.0,48.0,30.02,NNW,343,3.0,8.0,60,0.00,,,0.00,,2013-05-06 15:11:00,
2013-05-06 10:21:00,63.0,48.0,30.02,NNE,30,2.0,8.0,59,0.00,,,0.00,,2013-05-06 15:21:00,
2013-05-06 10:33:00,63.0,46.0,30.02,NNE,27,4.0,9.0,54,0.00,,,0.00,,2013-05-06 15:33:00,
2013-05-06 10:42:00,63.0,46.0,30.02,NNE,27,4.0,9.0,54,0.00,,,0.00,,2013-05-06 15:42:00,
2013-05-06 10:53:00,64.0,47.0,30.02,NE,40,2.0,8.0,53,0.00,,,0.00,,2013-05-06 15:53:00,
2013-05-06 11:03:00,66.0,48.0,30.02,North,5,3.0,7.0,52,0.00,,,0.00,,2013-05-06 16:03:00,
2013-05-06 11:13:00,66.0,48.0,30.02,North,5,3.0,7.0,52,0.00,,,0.00,,2013-05-06 16:13:00,
2013-05-06 11:23:00,67.0,47.0,30.01,NNW,345,4.0,10.0,49,0.00,,,0.00,,2013-05-06 16:23:00,
2013-05-06 11:32:00,68.0,47.0,30.01,ENE,61,2.0,9.0,47,0.00,,,0.00,,2013-05-06 16:32:00,
2013-05-06 11:42:00,68.0,47.0,30.01,ENE,61,2.0,9.0,47,0.00,,,0.00,,2013-05-06 16:42:00,
2013-05-06 11:52:00,69.0,47.0,30.01,NE,40,4.0,8.0,46,0.00,,,0.00,,2013-05-06 16:52:00,
2013-05-06 12:02:00,70.0,44.0,30.00,ESE,104,1.0,8.0,39,0.00,,,0.00,,2013-05-06 17:02:00,
2013-05-06 12:12:00,70.0,44.0,30.00,ESE,104,1.0,8.0,39,0.00,,,0.00,,2013-05-06 17:12:00,
2013-05-06 12:23:00,71.0,43.0,29.99,NNE,32,2.0,8.0,37,0.00,,,0.00,,2013-05-06 17:23:00,
2013-05-06 12:31:00,72.0,45.0,29.99,North,5,3.0,10.0,38,0.00,,,0.00,,2013-05-06 17:31:00,
2013-05-06 12:42:00,72.0,45.0,29.99,North,5,3.0,10.0,38,0.00,,,0.00,,2013-05-06 17:42:00,
2013-05-06 12:52:00,72.0,45.0,29.98,North,11,4.0,9.0,38,0.00,,,0.00,,2013-05-06 17:52:00,
2013-05-06 13:01:00,72.0,44.0,29.98,NE,36,3.0,10.0,36,0.00,,,0.00,,2013-05-06 18:01:00,
2013-05-06 13:12:00,72.0,44.0,29.98,NE,36,3.0,10.0,36,0.00,,,0.00,,2013-05-06 18:12:00,
2013-05-06 13:21:00,73.0,43.0,29.98,NW,318,2.0,8.0,34,0.00,,,0.00,,2013-05-06 18:21:00,
2013-05-06 13:31:00,74.0,43.0,29.98,North,355,4.0,11.0,33,0.00,,,0.00,,2013-05-06 18:31:00,
2013-05-06 13:43:00,74.0,43.0,29.98,North,355,4.0,11.0,33,0.00,,,0.00,,2013-05-06 18:43:00,
2013-05-06 13:52:00,74.0,43.0,29.98,NNE,20,3.0,8.0,33,0.00,,,0.00,,2013-05-06 18:52:00,
2013-05-06 14:01:00,75.0,43.0,29.97,North,355,2.0,9.0,32,0.00,,,0.00,,2013-05-06 19:01:00,
2013-05-06 14:11:00,75.0,43.0,29.97,North,355,2.0,9.0,32,0.00,,,0.00,,2013-05-06 19:11:00,
2013-05-06 14:22:00,75.0,41.0,29.97,ENE,73,2.0,10.0,30,0.00,,,0.00,,2013-05-06 19:22:00,
2013-05-06 14:32:00,75.0,41.0,29.97,NNW,342,2.0,6.0,29,0.00,,,0.00,,2013-05-06 19:32:00,
2013-05-06 14:41:00,75.0,41.0,29.97,NNW,342,2.0,6.0,29,0.00,,,0.00,,2013-05-06 19:41:00,
2013-05-06 14:52:00,76.0,42.0,29.97,ESE,114,2.0,7.0,30,0.00,,,0.00,,2013-05-06 19:52:00,
2013-05-06 15:02:00,76.0,42.0,29.96,SE,127,4.0,9.0,30,0.00,,,0.00,,2013-05-06 20:02:00,
2013-05-06 15:11:00,76.0,42.0,29.96,SE,127,4.0,9.0,30,0.00,,,0.00,,2013-05-06 20:11:00,
2013-05-06 15:21:00,76.0,39.0,29.96,East,85,3.0,9.0,26,0.00,,,0.00,,2013-05-06 20:21:00,
2013-05-06 15:32:00,76.0,40.0,29.95,ENE,76,2.0,10.0,27,0.00,,,0.00,,2013-05-06 20:32:00,
2013-05-06 15:42:00,76.0,40.0,29.95,ENE,76,2.0,10.0,27,0.00,,,0.00,,2013-05-06 20:42:00,
2013-05-06 15:52:00,76.0,41.0,29.95,SE,141,2.0,10.0,28,0.00,,,0.00,,2013-05-06 20:52:00,
2013-05-06 16:01:00,77.0,40.0,29.94,NNW,348,1.0,8.0,27,0.00,,,0.00,,2013-05-06 21:01:00,
2013-05-06 16:11:00,77.0,40.0,29.94,NNW,348,1.0,8.0,27,0.00,,,0.00,,2013-05-06 21:11:00,
2013-05-06 16:21:00,77.0,41.0,29.94,ESE,103,3.0,6.0,28,0.00,,,0.00,,2013-05-06 21:21:00,
2013-05-06 16:32:00,77.0,40.0,29.93,NE,39,1.0,6.0,27,0.00,,,0.00,,2013-05-06 21:32:00,
2013-05-06 16:43:00,77.0,40.0,29.93,NE,39,1.0,6.0,27,0.00,,,0.00,,2013-05-06 21:43:00,
2013-05-06 16:53:00,77.0,38.0,29.93,East,80,2.0,9.0,25,0.00,,,0.00,,2013-05-06 21:53:00,
2013-05-06 17:03:00,76.0,39.0,29.94,East,92,3.0,10.0,26,0.00,,,0.00,,2013-05-06 22:03:00,
2013-05-06 17:12:00,76.0,39.0,29.94,East,92,3.0,10.0,26,0.00,,,0.00,,2013-05-06 22:12:00,
2013-05-06 17:22:00,76.0,38.0,29.94,East,87,2.0,9.0,25,0.00,,,0.00,,2013-05-06 22:22:00,
2013-05-06 17:33:00,75.0,36.0,29.94,NW,325,2.0,8.0,24,0.00,,,0.00,,2013-05-06 22:33:00,
2013-05-06 17:45:00,75.0,36.0,29.94,NW,325,2.0,8.0,24,0.00,,,0.00,,2013-05-06 22:45:00,
2013-05-06 17:52:00,75.0,36.0,29.94,ESE,123,4.0,9.0,24,0.00,,,0.00,,2013-05-06 22:52:00,
2013-05-06 18:02:00,73.0,32.0,29.95,East,82,1.0,6.0,22,0.00,,,0.00,,2013-05-06 23:02:00,
2013-05-06 18:12:00,73.0,32.0,29.95,East,82,1.0,6.0,22,0.00,,,0.00,,2013-05-06 23:12:00,
2013-05-06 18:22:00,73.0,33.0,29.95,NE,50,1.0,6.0,23,0.00,,,0.00,,2013-05-06 23:22:00,
2013-05-06 18:31:00,73.0,33.0,29.95,ENE,60,1.0,5.0,23,0.00,,,0.00,,2013-05-06 23:31:00,
2013-05-06 18:41:00,73.0,33.0,29.95,ENE,60,1.0,5.0,23,0.00,,,0.00,,2013-05-06 23:41:00,
2013-05-06 18:52:00,73.0,33.0,29.95,ENE,60,1.0,5.0,23,0.00,,,0.00,,2013-05-06 23:52:00,
2013-05-06 19:01:00,73.0,33.0,29.95,ENE,60,1.0,5.0,23,0.00,,,0.00,,2013-05-07 00:01:00,
2013-05-06 19:11:00,73.0,33.0,29.95,ENE,60,1.0,5.0,23,0.00,,,0.00,,2013-05-07 00:11:00,
2013-05-06 19:21:00,70.0,38.0,29.96,East,84,1.0,4.0,31,0.00,,,0.00,,2013-05-07 00:21:00,
2013-05-06 19:32:00,70.0,38.0,29.96,East,84,1.0,4.0,31,0.00,,,0.00,,2013-05-07 00:32:00,
2013-05-06 19:40:00,67.0,38.0,29.97,East,86,0.0,1.0,34,0.00,,,0.00,,2013-05-07 00:40:00,
2013-05-06 19:42:00,70.0,38.0,29.96,East,84,1.0,4.0,31,0.00,,,0.00,,2013-05-07 00:42:00,
2013-05-06 19:52:00,68.0,37.0,29.96,East,86,0.0,2.0,32,0.00,,,0.00,,2013-05-07 00:52:00,
2013-05-06 20:01:00,67.0,38.0,29.97,East,86,0.0,1.0,34,0.00,,,0.00,,2013-05-07 01:01:00,
2013-05-06 20:11:00,67.0,38.0,29.97,East,86,0.0,1.0,34,0.00,,,0.00,,2013-05-07 01:11:00,
2013-05-06 20:21:00,67.0,38.0,29.97,East,86,0.0,1.0,34,0.00,,,0.00,,2013-05-07 01:21:00,
2013-05-06 20:32:00,67.0,38.0,29.97,East,86,0.0,1.0,34,0.00,,,0.00,,2013-05-07 01:32:00,
2013-05-06 20:53:00,63.0,40.0,29.97,East,86,0.0,0.0,42,0.00,,,0.00,,2013-05-07 01:53:00,
2013-05-06 21:02:00,63.0,40.0,29.97,East,86,0.0,0.0,42,0.00,,,0.00,,2013-05-07 02:02:00,
2013-05-06 21:11:00,63.0,40.0,29.97,East,86,0.0,0.0,42,0.00,,,0.00,,2013-05-07 02:11:00,
2013-05-06 21:21:00,63.0,40.0,29.97,East,86,0.0,0.0,42,0.00,,,0.00,,2013-05-07 02:21:00,